createdAt,value
2022-10-06T00:01:14.447Z,14.80
2022-10-06T00:03:42.454Z,14.90
2022-10-06T00:06:12.830Z,15.20
2022-10-06T00:08:41.756Z,15.50
2022-10-06T00:11:10.045Z,15.50
2022-10-06T00:13:37.760Z,15.50
2022-10-06T00:16:18.248Z,15.50
2022-10-06T00:18:45.935Z,15.50
2022-10-06T00:21:13.496Z,15.30
2022-10-06T00:23:40.811Z,15.10
2022-10-06T00:26:14.674Z,15.10
2022-10-06T00:28:48.376Z,14.90
2022-10-06T00:31:16.851Z,14.70
2022-10-06T00:33:44.209Z,14.70
2022-10-06T00:36:12.031Z,14.90
2022-10-06T00:38:39.410Z,14.80
2022-10-06T00:41:15.740Z,14.80
2022-10-06T00:43:53.060Z,14.70
2022-10-06T00:46:26.307Z,14.70
2022-10-06T00:49:09.861Z,14.70
2022-10-06T00:51:40.567Z,14.70
2022-10-06T00:54:08.662Z,14.90
2022-10-06T00:56:39.536Z,15.00
2022-10-06T00:59:15.581Z,15.10
2022-10-06T01:01:53.510Z,14.90
2022-10-06T01:04:22.849Z,14.80
2022-10-06T01:06:54.610Z,14.80
2022-10-06T01:09:23.845Z,14.60
2022-10-06T01:11:55.600Z,14.60
2022-10-06T01:14:26.115Z,14.90
2022-10-06T01:17:25.375Z,15.00
2022-10-06T01:19:57.443Z,14.80
2022-10-06T01:22:36.451Z,14.60
2022-10-06T01:25:06.249Z,14.50
2022-10-06T01:27:36.039Z,14.50
2022-10-06T01:30:06.197Z,14.40
2022-10-06T01:32:36.267Z,14.40
2022-10-06T01:35:06.850Z,14.40
2022-10-06T01:37:34.518Z,14.40
2022-10-06T01:40:02.142Z,14.40
2022-10-06T01:42:32.952Z,14.50
2022-10-06T01:45:04.058Z,14.50
2022-10-06T01:47:31.687Z,14.60
2022-10-06T01:49:59.879Z,14.60
2022-10-06T01:52:29.466Z,14.70
2022-10-06T01:54:56.942Z,14.70
2022-10-06T01:57:24.997Z,14.70
2022-10-06T01:59:54.907Z,14.70
2022-10-06T02:02:24.009Z,14.80
2022-10-06T02:04:51.405Z,14.90
2022-10-06T02:07:19.418Z,14.90
2022-10-06T02:09:47.356Z,15.00
2022-10-06T02:12:16.146Z,15.00
2022-10-06T02:14:43.595Z,15.10
2022-10-06T02:17:11.036Z,15.10
2022-10-06T02:19:38.656Z,15.00
2022-10-06T02:22:06.071Z,15.00
2022-10-06T02:24:33.541Z,15.00
2022-10-06T02:27:01.055Z,15.10
2022-10-06T02:29:28.412Z,15.20
2022-10-06T02:31:56.878Z,15.10
2022-10-06T02:34:24.890Z,15.00
2022-10-06T02:36:54.053Z,14.80
2022-10-06T02:39:21.777Z,14.80
2022-10-06T02:41:49.171Z,14.70
2022-10-06T02:44:16.593Z,14.70
2022-10-06T02:46:45.405Z,14.70
2022-10-06T02:49:13.425Z,14.80
2022-10-06T02:51:40.816Z,14.70
2022-10-06T02:54:08.327Z,14.60
2022-10-06T02:56:37.729Z,14.60
2022-10-06T02:59:05.101Z,14.60
2022-10-06T03:01:35.008Z,14.50
2022-10-06T03:04:11.657Z,14.50
2022-10-06T03:06:41.607Z,14.50
2022-10-06T03:09:14.448Z,14.50
2022-10-06T03:11:44.265Z,14.30
2022-10-06T03:14:21.356Z,14.50
2022-10-06T03:16:54.772Z,14.60
2022-10-06T03:19:27.540Z,14.50
2022-10-06T03:21:55.251Z,14.40
2022-10-06T03:24:28.940Z,14.60
2022-10-06T03:26:59.229Z,14.80
2022-10-06T03:29:26.994Z,15.00
2022-10-06T03:31:58.134Z,15.20
2022-10-06T03:34:25.993Z,15.30
2022-10-06T03:36:55.204Z,15.40
2022-10-06T03:39:24.785Z,15.50
2022-10-06T03:41:52.223Z,15.50
2022-10-06T03:44:22.036Z,15.50
2022-10-06T03:46:49.647Z,15.40
2022-10-06T03:49:17.069Z,15.50
2022-10-06T03:51:44.496Z,15.50
2022-10-06T03:54:17.266Z,15.40
2022-10-06T03:56:47.220Z,15.40
2022-10-06T03:59:17.470Z,15.40
2022-10-06T04:01:48.377Z,15.30
2022-10-06T04:04:26.720Z,15.10
2022-10-06T04:06:59.735Z,14.90
2022-10-06T04:09:27.525Z,14.50
2022-10-06T04:11:54.892Z,14.60
2022-10-06T04:14:22.333Z,14.50
2022-10-06T04:16:51.106Z,14.50
2022-10-06T04:19:25.534Z,14.50
2022-10-06T04:21:56.109Z,14.30
2022-10-06T04:24:25.355Z,14.30
2022-10-06T04:26:53.286Z,14.30
2022-10-06T04:29:21.995Z,14.60
2022-10-06T04:31:54.089Z,14.80
2022-10-06T04:34:32.894Z,15.00
2022-10-06T04:37:00.427Z,15.10
2022-10-06T04:39:28.030Z,14.90
2022-10-06T04:41:55.719Z,14.60
2022-10-06T04:44:27.349Z,14.30
2022-10-06T04:46:56.767Z,14.10
2022-10-06T04:49:24.352Z,14.20
2022-10-06T04:51:53.661Z,14.40
2022-10-06T04:54:21.927Z,14.60
2022-10-06T04:56:54.672Z,14.80
2022-10-06T04:59:44.543Z,14.80
2022-10-06T05:02:13.700Z,14.80
2022-10-06T05:04:42.200Z,14.80
2022-10-06T05:07:10.072Z,14.90
2022-10-06T05:09:37.693Z,14.90
2022-10-06T05:12:05.255Z,14.90
2022-10-06T05:14:33.542Z,14.90
2022-10-06T05:17:01.053Z,14.90
2022-10-06T05:19:30.174Z,14.90
2022-10-06T05:21:57.972Z,14.80
2022-10-06T05:24:28.698Z,14.50
2022-10-06T05:27:00.865Z,14.20
2022-10-06T05:29:29.612Z,13.90
2022-10-06T05:31:57.727Z,13.80
2022-10-06T05:34:26.007Z,13.70
2022-10-06T05:36:53.477Z,13.70
2022-10-06T05:39:21.401Z,13.60
2022-10-06T05:41:57.602Z,13.50
2022-10-06T05:44:25.757Z,13.50
2022-10-06T05:46:54.855Z,13.40
2022-10-06T05:49:22.413Z,13.40
2022-10-06T05:51:55.718Z,13.50
2022-10-06T05:54:28.978Z,13.60
2022-10-06T05:56:56.546Z,13.70
2022-10-06T05:59:24.112Z,13.70
2022-10-06T06:01:53.939Z,13.90
2022-10-06T06:04:30.259Z,14.00
2022-10-06T06:06:57.831Z,14.20
2022-10-06T06:09:28.695Z,14.20
2022-10-06T06:12:00.843Z,14.30
2022-10-06T06:15:02.336Z,14.40
2022-10-06T06:17:38.117Z,14.40
2022-10-06T06:20:06.791Z,14.50
2022-10-06T06:22:35.788Z,14.70
2022-10-06T06:25:05.026Z,14.80
2022-10-06T06:27:32.416Z,14.90
2022-10-06T06:29:59.951Z,15.20
2022-10-06T06:32:29.781Z,15.80
2022-10-06T06:34:59.075Z,16.30
2022-10-06T06:37:26.944Z,17.20
2022-10-06T06:39:55.210Z,17.80
2022-10-06T06:42:22.718Z,18.30
2022-10-06T06:45:16.284Z,18.80
2022-10-06T06:47:56.263Z,19.00
2022-10-06T06:50:23.880Z,18.20
2022-10-06T06:52:51.262Z,17.90
2022-10-06T06:55:19.113Z,17.60
2022-10-06T06:57:46.543Z,17.40
2022-10-06T07:00:14.396Z,17.30
2022-10-06T07:02:43.265Z,17.30
2022-10-06T07:05:11.538Z,17.40
2022-10-06T07:07:39.492Z,17.60
2022-10-06T07:10:08.228Z,17.90
2022-10-06T07:12:35.653Z,17.90
2022-10-06T07:15:21.689Z,18.10
2022-10-06T07:18:11.441Z,18.10
2022-10-06T07:20:57.297Z,18.20
2022-10-06T07:23:43.609Z,18.30
2022-10-06T07:26:15.585Z,18.30
2022-10-06T07:28:43.440Z,18.50
2022-10-06T07:31:12.772Z,18.40
2022-10-06T07:33:41.459Z,18.50
2022-10-06T07:36:11.155Z,18.70
2022-10-06T07:38:41.719Z,18.80
2022-10-06T07:41:24.643Z,18.90
2022-10-06T07:43:55.777Z,19.00
2022-10-06T07:46:24.963Z,19.10
2022-10-06T07:49:18.298Z,19.10
2022-10-06T07:51:45.869Z,19.10
2022-10-06T07:54:13.430Z,19.10
2022-10-06T07:57:01.449Z,19.10
2022-10-06T07:59:29.112Z,19.20
2022-10-06T08:01:56.526Z,19.40
2022-10-06T08:04:23.902Z,19.40
2022-10-06T08:06:51.266Z,19.50
2022-10-06T08:09:18.664Z,19.50
2022-10-06T08:11:47.351Z,19.70
2022-10-06T08:14:15.156Z,19.70
2022-10-06T08:16:42.696Z,19.90
2022-10-06T08:19:11.696Z,19.90
2022-10-06T08:21:39.676Z,19.90
2022-10-06T08:24:30.558Z,20.10
2022-10-06T08:27:02.068Z,20.10
2022-10-06T08:29:29.439Z,20.40
2022-10-06T08:31:59.368Z,20.50
2022-10-06T08:34:26.844Z,20.60
2022-10-06T08:37:18.892Z,20.70
2022-10-06T08:39:44.850Z,20.60
2022-10-06T08:42:18.621Z,20.50
2022-10-06T08:44:50.081Z,20.50
2022-10-06T08:47:25.571Z,20.60
2022-10-06T08:49:55.224Z,20.60
2022-10-06T08:52:35.655Z,20.70
2022-10-06T08:55:26.180Z,20.90
2022-10-06T08:58:21.526Z,20.80
2022-10-06T09:00:49.191Z,20.60
2022-10-06T09:03:27.600Z,20.50
2022-10-06T09:06:14.361Z,20.70
2022-10-06T09:08:46.892Z,20.70
2022-10-06T09:11:36.577Z,20.90
2022-10-06T09:14:10.957Z,21.00
2022-10-06T09:16:42.480Z,21.00
2022-10-06T09:19:15.584Z,20.90
2022-10-06T09:22:04.680Z,20.80
2022-10-06T09:24:43.593Z,21.10
2022-10-06T09:27:18.595Z,21.20
2022-10-06T09:29:46.038Z,21.30
2022-10-06T09:32:13.868Z,21.40
2022-10-06T09:34:46.963Z,21.40
2022-10-06T09:37:14.786Z,21.40
2022-10-06T09:39:52.915Z,21.30
2022-10-06T09:42:34.572Z,21.40
2022-10-06T09:45:17.637Z,21.60
2022-10-06T09:47:46.011Z,21.60
2022-10-06T09:50:15.988Z,21.50
2022-10-06T09:53:03.239Z,21.50
2022-10-06T09:55:39.205Z,21.60
2022-10-06T09:58:26.306Z,21.70
2022-10-06T10:01:02.841Z,21.50
2022-10-06T10:06:40.171Z,21.70
2022-10-06T10:09:21.828Z,21.90
2022-10-06T10:12:25.260Z,21.90
2022-10-06T10:14:56.855Z,21.90
2022-10-06T10:17:32.870Z,21.80
2022-10-06T10:20:02.787Z,21.80
2022-10-06T10:22:39.009Z,21.90
2022-10-06T10:25:14.655Z,21.60
2022-10-06T10:28:06.545Z,21.80
2022-10-06T10:30:45.308Z,21.80
2022-10-06T10:33:19.062Z,21.80
2022-10-06T10:35:51.595Z,22.10
2022-10-06T10:38:22.777Z,22.00
2022-10-06T10:40:53.994Z,21.90
2022-10-06T10:43:48.715Z,21.80
2022-10-06T10:46:28.488Z,21.90
2022-10-06T10:49:01.968Z,22.00
2022-10-06T10:51:38.314Z,22.00
2022-10-06T10:54:19.614Z,21.90
2022-10-06T10:56:49.235Z,22.00
2022-10-06T10:59:58.302Z,22.10
2022-10-06T11:02:26.599Z,22.20
2022-10-06T11:05:02.545Z,22.30
2022-10-06T11:07:46.564Z,22.30
2022-10-06T11:10:21.026Z,22.30
2022-10-06T11:13:25.584Z,22.40
2022-10-06T11:16:08.015Z,22.50
2022-10-06T11:18:53.262Z,22.70
2022-10-06T11:21:36.487Z,22.80
2022-10-06T11:24:44.662Z,23.00
2022-10-06T11:27:41.055Z,23.20
2022-10-06T11:30:15.031Z,23.10
2022-10-06T11:33:03.781Z,23.00
2022-10-06T11:35:37.110Z,23.00
2022-10-06T11:38:14.091Z,23.00
2022-10-06T11:40:41.911Z,23.10
2022-10-06T11:43:17.413Z,23.20
2022-10-06T11:45:51.241Z,23.10
2022-10-06T11:48:28.014Z,23.20
2022-10-06T11:50:56.815Z,23.20
2022-10-06T11:53:36.943Z,23.30
2022-10-06T11:56:19.587Z,23.30
2022-10-06T11:58:55.690Z,23.10
2022-10-06T12:01:35.085Z,23.30
2022-10-06T12:04:08.675Z,23.50
2022-10-06T12:06:42.382Z,23.60
2022-10-06T12:09:31.176Z,23.50
2022-10-06T12:11:59.844Z,23.30
2022-10-06T12:17:49.474Z,23.60
2022-10-06T12:20:34.730Z,23.70
2022-10-06T12:23:13.856Z,23.70
2022-10-06T12:25:53.948Z,23.50
2022-10-06T12:28:45.979Z,23.50
2022-10-06T12:31:32.041Z,23.60
2022-10-06T12:33:59.637Z,23.60
2022-10-06T12:36:29.702Z,23.60
2022-10-06T12:39:23.295Z,23.30
2022-10-06T12:42:07.759Z,23.30
2022-10-06T12:44:49.978Z,23.20
2022-10-06T12:47:25.751Z,23.20
2022-10-06T12:49:58.549Z,23.30
2022-10-06T12:52:44.516Z,23.30
2022-10-06T12:55:45.155Z,23.30
2022-10-06T12:58:20.188Z,23.30
2022-10-06T13:00:47.942Z,23.40
2022-10-06T13:03:25.311Z,23.40
2022-10-06T13:06:03.191Z,23.20
2022-10-06T13:08:38.138Z,23.20
2022-10-06T13:11:27.033Z,23.30
2022-10-06T13:13:57.257Z,23.50
2022-10-06T13:16:31.113Z,23.70
2022-10-06T13:19:01.169Z,23.60
2022-10-06T13:21:30.233Z,23.60
2022-10-06T13:23:57.637Z,23.50
2022-10-06T13:26:31.403Z,23.60
2022-10-06T13:29:00.234Z,23.70
2022-10-06T13:31:32.528Z,23.70
2022-10-06T13:34:15.133Z,23.70
2022-10-06T13:36:50.591Z,23.80
2022-10-06T13:39:19.197Z,24.00
2022-10-06T13:42:00.599Z,23.70
2022-10-06T13:44:30.424Z,23.70
2022-10-06T13:47:02.348Z,23.80
2022-10-06T13:49:47.368Z,23.70
2022-10-06T13:52:22.271Z,23.60
2022-10-06T13:54:54.215Z,23.70
2022-10-06T13:57:44.227Z,23.60
2022-10-06T14:00:14.760Z,23.50
2022-10-06T14:02:45.004Z,23.50
2022-10-06T14:05:27.520Z,23.60
2022-10-06T14:08:19.965Z,23.60
2022-10-06T14:10:58.373Z,23.60
2022-10-06T14:13:29.651Z,23.60
2022-10-06T14:16:07.112Z,23.60
2022-10-06T14:18:40.071Z,23.60
2022-10-06T14:21:41.947Z,23.60
2022-10-06T14:24:15.466Z,23.70
2022-10-06T14:26:44.845Z,23.70
2022-10-06T14:29:15.666Z,23.80
2022-10-06T14:31:44.089Z,23.80
2022-10-06T14:34:16.985Z,23.80
2022-10-06T14:36:53.523Z,23.70
2022-10-06T14:39:21.316Z,23.70
2022-10-06T14:41:48.864Z,23.60
2022-10-06T14:44:16.576Z,23.50
2022-10-06T14:46:48.065Z,23.50
2022-10-06T14:49:15.939Z,23.60
2022-10-06T14:51:44.350Z,23.60
2022-10-06T14:54:12.373Z,23.50
2022-10-06T14:56:41.066Z,23.50
2022-10-06T14:59:12.008Z,23.60
2022-10-06T15:01:42.649Z,23.50
2022-10-06T15:04:12.950Z,23.40
2022-10-06T15:06:59.533Z,23.30
2022-10-06T15:09:30.578Z,23.20
2022-10-06T15:11:59.819Z,23.30
2022-10-06T15:14:28.452Z,23.40
2022-10-06T15:16:59.131Z,23.30
2022-10-06T15:19:29.057Z,23.40
2022-10-06T15:21:56.527Z,23.50
2022-10-06T15:24:23.917Z,23.40
2022-10-06T15:27:09.646Z,23.20
2022-10-06T15:29:37.220Z,23.30
2022-10-06T15:32:06.346Z,23.00
2022-10-06T15:34:36.846Z,23.00
2022-10-06T15:37:04.644Z,22.80
2022-10-06T15:39:35.884Z,22.90
2022-10-06T15:42:03.948Z,22.80
2022-10-06T15:44:33.573Z,22.80
2022-10-06T15:47:03.973Z,23.00
2022-10-06T15:49:33.021Z,23.00
2022-10-06T15:52:03.753Z,23.00
2022-10-06T15:54:34.662Z,22.90
2022-10-06T15:57:03.420Z,22.80
2022-10-06T15:59:32.727Z,22.80
2022-10-06T16:02:14.813Z,22.80
2022-10-06T16:04:43.402Z,22.80
2022-10-06T16:07:12.817Z,22.80
2022-10-06T16:09:48.603Z,22.60
2022-10-06T16:12:18.805Z,22.50
2022-10-06T16:14:46.612Z,22.50
2022-10-06T16:17:14.947Z,22.40
2022-10-06T16:19:43.173Z,22.40
2022-10-06T16:22:14.109Z,22.40
2022-10-06T16:24:41.724Z,22.30
2022-10-06T16:27:13.936Z,22.20
2022-10-06T16:29:41.389Z,22.20
2022-10-06T16:32:09.155Z,22.10
2022-10-06T16:34:36.620Z,22.10
2022-10-06T16:37:04.012Z,22.00
2022-10-06T16:39:31.393Z,21.90
2022-10-06T16:41:58.743Z,21.90
2022-10-06T16:44:26.195Z,21.90
2022-10-06T16:46:53.709Z,21.80
2022-10-06T16:49:21.553Z,21.70
2022-10-06T16:51:48.966Z,21.70
2022-10-06T16:54:19.577Z,21.60
2022-10-06T16:56:51.903Z,21.40
2022-10-06T16:59:20.228Z,21.40
2022-10-06T17:01:48.839Z,21.30
2022-10-06T17:04:22.067Z,21.30
2022-10-06T17:06:51.920Z,21.10
2022-10-06T17:09:24.705Z,21.10
2022-10-06T17:11:54.686Z,21.10
2022-10-06T17:14:22.226Z,21.00
2022-10-06T17:16:52.291Z,21.00
2022-10-06T17:19:21.817Z,21.00
2022-10-06T17:21:54.102Z,20.90
2022-10-06T17:24:28.382Z,20.90
2022-10-06T17:26:56.676Z,20.80
2022-10-06T17:29:24.509Z,20.80
2022-10-06T17:31:56.216Z,20.80
2022-10-06T17:34:27.774Z,20.80
2022-10-06T17:36:59.384Z,20.70
2022-10-06T17:39:26.845Z,20.70
2022-10-06T17:41:54.757Z,20.70
2022-10-06T17:44:26.319Z,20.70
2022-10-06T17:46:56.284Z,20.60
2022-10-06T17:49:24.580Z,20.60
2022-10-06T17:51:53.734Z,20.60
2022-10-06T17:54:23.393Z,20.50
2022-10-06T17:56:53.412Z,20.40
2022-10-06T17:59:28.899Z,20.40
2022-10-06T18:01:58.673Z,20.40
2022-10-06T18:04:27.043Z,20.40
2022-10-06T18:06:54.883Z,20.30
2022-10-06T18:09:22.749Z,20.30
2022-10-06T18:11:55.455Z,20.20
2022-10-06T18:14:25.924Z,20.20
2022-10-06T18:17:00.403Z,20.10
2022-10-06T18:19:30.111Z,20.10
2022-10-06T18:22:01.265Z,20.00
2022-10-06T18:24:30.455Z,20.00
2022-10-06T18:27:00.200Z,20.00
2022-10-06T18:29:34.034Z,20.00
2022-10-06T18:32:40.512Z,20.00
2022-10-06T18:37:37.200Z,19.80
2022-10-06T18:40:06.957Z,19.70
2022-10-06T18:42:34.715Z,19.70
2022-10-06T18:45:20.592Z,19.60
2022-10-06T18:48:06.455Z,19.50
2022-10-06T18:50:35.135Z,19.50
2022-10-06T18:53:04.297Z,19.50
2022-10-06T18:55:32.046Z,19.40
2022-10-06T18:57:59.503Z,19.40
2022-10-06T19:00:26.969Z,19.30
2022-10-06T19:02:56.739Z,19.30
2022-10-06T19:05:24.747Z,19.20
2022-10-06T19:07:53.570Z,19.10
2022-10-06T19:10:21.233Z,19.10
2022-10-06T19:12:49.450Z,19.00
2022-10-06T19:15:20.683Z,19.00
2022-10-06T19:17:49.964Z,18.90
2022-10-06T19:20:18.486Z,18.90
2022-10-06T19:22:47.561Z,18.70
2022-10-06T19:25:18.834Z,18.50
2022-10-06T19:27:46.807Z,18.50
2022-10-06T19:30:14.851Z,18.40
2022-10-06T19:32:42.316Z,18.50
2022-10-06T19:35:10.735Z,18.50
2022-10-06T19:37:38.602Z,18.20
2022-10-06T19:40:08.606Z,18.30
2022-10-06T19:42:48.185Z,18.30
2022-10-06T19:45:16.349Z,18.30
2022-10-06T19:47:45.484Z,18.30
2022-10-06T19:50:13.873Z,18.30
2022-10-06T19:52:42.146Z,18.10
2022-10-06T19:55:09.716Z,17.90
2022-10-06T19:57:37.133Z,18.00
2022-10-06T20:00:07.197Z,18.10
2022-10-06T20:02:43.255Z,18.10
2022-10-06T20:05:13.455Z,18.10
2022-10-06T20:07:42.407Z,18.10
2022-10-06T20:10:11.792Z,18.10
2022-10-06T20:12:41.443Z,18.00
2022-10-06T20:15:09.972Z,17.90
2022-10-06T20:17:37.830Z,18.00
2022-10-06T20:20:05.745Z,17.90
2022-10-06T20:22:33.206Z,17.80
2022-10-06T20:25:01.985Z,17.60
2022-10-06T20:27:29.483Z,17.30
2022-10-06T20:29:58.132Z,17.20
2022-10-06T20:32:25.641Z,17.10
2022-10-06T20:34:53.115Z,16.80
2022-10-06T20:37:20.535Z,16.80
2022-10-06T20:40:06.248Z,16.70
2022-10-06T20:42:33.710Z,16.80
2022-10-06T20:45:01.098Z,16.60
2022-10-06T20:47:29.759Z,16.40
2022-10-06T20:49:57.126Z,16.30
2022-10-06T20:52:24.481Z,16.20
2022-10-06T20:54:52.031Z,16.00
2022-10-06T20:57:19.665Z,16.00
2022-10-06T20:59:47.087Z,15.90
2022-10-06T21:02:14.652Z,16.10
2022-10-06T21:04:45.159Z,16.00
2022-10-06T21:07:12.512Z,15.80
2022-10-06T21:09:39.961Z,15.70
2022-10-06T21:12:07.402Z,15.70
2022-10-06T21:14:37.650Z,15.70
2022-10-06T21:17:05.822Z,15.60
2022-10-06T21:19:37.617Z,15.70
2022-10-06T21:22:05.369Z,15.70
2022-10-06T21:24:32.731Z,15.60
2022-10-06T21:27:00.114Z,15.50
2022-10-06T21:29:27.544Z,15.40
2022-10-06T21:31:55.486Z,15.20
2022-10-06T21:34:22.922Z,15.20
2022-10-06T21:36:50.479Z,15.50
2022-10-06T21:39:17.897Z,15.60
2022-10-06T21:41:45.292Z,15.80
2022-10-06T21:44:14.795Z,16.00
2022-10-06T21:46:53.650Z,16.20
2022-10-06T21:49:25.449Z,16.40
2022-10-06T21:51:54.379Z,16.40
2022-10-06T21:54:22.960Z,16.60
2022-10-06T21:56:50.694Z,16.60
2022-10-06T21:59:18.133Z,16.70
2022-10-06T22:01:46.775Z,16.70
2022-10-06T22:04:14.665Z,16.60
2022-10-06T22:06:43.606Z,16.60
2022-10-06T22:09:16.053Z,16.70
2022-10-06T22:11:44.065Z,16.70
2022-10-06T22:14:14.460Z,16.70
2022-10-06T22:16:42.411Z,16.70
2022-10-06T22:19:12.300Z,16.60
2022-10-06T22:21:42.167Z,16.60
2022-10-06T22:24:12.352Z,16.50
2022-10-06T22:26:41.172Z,16.50
2022-10-06T22:29:10.794Z,16.50
2022-10-06T22:31:40.211Z,16.50
2022-10-06T22:34:09.507Z,16.50
2022-10-06T22:36:37.228Z,16.40
2022-10-06T22:39:04.995Z,16.50
2022-10-06T22:41:32.573Z,16.50
2022-10-06T22:44:00.221Z,16.40
2022-10-06T22:46:30.213Z,16.50
2022-10-06T22:48:57.980Z,16.50
2022-10-06T22:51:25.784Z,16.50
2022-10-06T22:53:57.949Z,16.50
2022-10-06T22:56:27.518Z,16.50
2022-10-06T22:58:54.939Z,16.50
2022-10-06T23:01:22.465Z,16.40
2022-10-06T23:03:49.878Z,16.30
2022-10-06T23:06:17.943Z,16.10
2022-10-06T23:08:45.613Z,16.10
2022-10-06T23:11:16.448Z,16.20
2022-10-06T23:13:44.887Z,16.20
2022-10-06T23:16:17.476Z,16.20
2022-10-06T23:18:45.346Z,16.20
2022-10-06T23:21:21.952Z,16.20
2022-10-06T23:23:51.904Z,16.20
2022-10-06T23:26:21.084Z,16.10
2022-10-06T23:28:56.870Z,16.00
2022-10-06T23:31:28.754Z,15.90
2022-10-06T23:33:56.505Z,15.90
2022-10-06T23:36:24.384Z,15.70
2022-10-06T23:38:51.945Z,15.80
2022-10-06T23:41:19.680Z,15.90
2022-10-06T23:43:47.146Z,15.90
2022-10-06T23:46:15.063Z,16.00
2022-10-06T23:48:42.858Z,16.00
2022-10-06T23:51:15.409Z,16.10
2022-10-06T23:53:43.542Z,16.10
2022-10-06T23:56:11.695Z,16.10
2022-10-06T23:58:39.789Z,15.90
